sensor_id;sensor_type;location;lat;lon;timestamp;temperature;humidity
15199;DHT22;7700;48.654;9.070;2022-07-23T00:00:14;22.50;99.90
15199;DHT22;7700;48.654;9.070;2022-07-23T00:02:40;22.40;99.90
15199;DHT22;7700;48.654;9.070;2022-07-23T00:05:05;22.40;99.90
15199;DHT22;7700;48.654;9.070;2022-07-23T00:07:31;22.40;99.90
15199;DHT22;7700;48.654;9.070;2022-07-23T00:09:57;22.40;99.90
15199;DHT22;7700;48.654;9.070;2022-07-23T00:12:22;22.40;99.90
15199;DHT22;7700;48.654;9.070;2022-07-23T00:14:48;22.50;99.90
15199;DHT22;7700;48.654;9.070;2022-07-23T00:17:13;22.50;99.90
15199;DHT22;7700;48.654;9.070;2022-07-23T00:19:39;22.60;99.90
15199;DHT22;7700;48.654;9.070;2022-07-23T00:22:04;22.60;99.90
15199;DHT22;7700;48.654;9.070;2022-07-23T00:24:30;22.60;99.90
15199;DHT22;7700;48.654;9.070;2022-07-23T00:26:56;22.60;99.90
15199;DHT22;7700;48.654;9.070;2022-07-23T00:29:21;22.50;99.90
15199;DHT22;7700;48.654;9.070;2022-07-23T00:31:47;22.40;99.90
15199;DHT22;7700;48.654;9.070;2022-07-23T00:34:12;22.30;99.90
15199;DHT22;7700;48.654;9.070;2022-07-23T00:36:38;22.20;99.90
15199;DHT22;7700;48.654;9.070;2022-07-23T00:39:04;22.20;99.90
15199;DHT22;7700;48.654;9.070;2022-07-23T00:41:29;22.30;99.90
15199;DHT22;7700;48.654;9.070;2022-07-23T00:43:55;22.30;99.90
15199;DHT22;7700;48.654;9.070;2022-07-23T00:46:21;22.20;99.90
15199;DHT22;7700;48.654;9.070;2022-07-23T00:48:47;22.20;99.90
15199;DHT22;7700;48.654;9.070;2022-07-23T00:51:15;22.20;99.90
15199;DHT22;7700;48.654;9.070;2022-07-23T00:53:41;22.30;99.90
15199;DHT22;7700;48.654;9.070;2022-07-23T00:56:07;22.30;99.90
15199;DHT22;7700;48.654;9.070;2022-07-23T00:58:35;22.30;99.90
15199;DHT22;7700;48.654;9.070;2022-07-23T01:01:01;22.30;99.90
15199;DHT22;7700;48.654;9.070;2022-07-23T01:03:26;22.30;99.90
15199;DHT22;7700;48.654;9.070;2022-07-23T01:05:52;22.30;99.90
15199;DHT22;7700;48.654;9.070;2022-07-23T01:08:18;22.30;99.90
15199;DHT22;7700;48.654;9.070;2022-07-23T01:10:44;22.30;99.90
15199;DHT22;7700;48.654;9.070;2022-07-23T01:13:10;22.30;99.90
15199;DHT22;7700;48.654;9.070;2022-07-23T01:15:37;22.20;99.90
15199;DHT22;7700;48.654;9.070;2022-07-23T01:18:04;22.20;99.90
15199;DHT22;7700;48.654;9.070;2022-07-23T01:20:30;22.10;99.90
15199;DHT22;7700;48.654;9.070;2022-07-23T01:22:56;22.10;99.90
15199;DHT22;7700;48.654;9.070;2022-07-23T01:25:22;22.00;99.90
15199;DHT22;7700;48.654;9.070;2022-07-23T01:27:48;21.90;99.90
15199;DHT22;7700;48.654;9.070;2022-07-23T01:30:14;21.80;99.90
15199;DHT22;7700;48.654;9.070;2022-07-23T01:32:40;21.80;99.90
15199;DHT22;7700;48.654;9.070;2022-07-23T01:35:07;21.70;99.90
15199;DHT22;7700;48.654;9.070;2022-07-23T01:37:33;21.70;99.90
15199;DHT22;7700;48.654;9.070;2022-07-23T01:39:58;21.60;99.90
15199;DHT22;7700;48.654;9.070;2022-07-23T01:42:24;21.50;99.90
15199;DHT22;7700;48.654;9.070;2022-07-23T01:44:50;21.50;99.90
15199;DHT22;7700;48.654;9.070;2022-07-23T01:47:16;21.50;99.90
15199;DHT22;7700;48.654;9.070;2022-07-23T01:49:41;21.40;99.90
15199;DHT22;7700;48.654;9.070;2022-07-23T01:52:07;21.40;99.90
15199;DHT22;7700;48.654;9.070;2022-07-23T01:54:36;21.30;99.90
15199;DHT22;7700;48.654;9.070;2022-07-23T01:57:02;21.20;99.90
15199;DHT22;7700;48.654;9.070;2022-07-23T01:59:28;21.10;99.90
15199;DHT22;7700;48.654;9.070;2022-07-23T02:01:53;21.00;99.90
15199;DHT22;7700;48.654;9.070;2022-07-23T02:04:20;20.90;99.90
15199;DHT22;7700;48.654;9.070;2022-07-23T02:06:46;21.00;99.90
15199;DHT22;7700;48.654;9.070;2022-07-23T02:09:12;20.90;99.90
15199;DHT22;7700;48.654;9.070;2022-07-23T02:11:37;21.00;99.90
15199;DHT22;7700;48.654;9.070;2022-07-23T02:14:04;20.90;99.90
15199;DHT22;7700;48.654;9.070;2022-07-23T02:16:29;21.00;99.90
15199;DHT22;7700;48.654;9.070;2022-07-23T02:18:55;21.00;99.90
15199;DHT22;7700;48.654;9.070;2022-07-23T02:21:21;21.00;99.90
15199;DHT22;7700;48.654;9.070;2022-07-23T02:23:46;20.90;99.90
15199;DHT22;7700;48.654;9.070;2022-07-23T02:26:12;20.90;99.90
15199;DHT22;7700;48.654;9.070;2022-07-23T02:28:38;20.90;99.90
15199;DHT22;7700;48.654;9.070;2022-07-23T02:31:03;20.90;99.90
15199;DHT22;7700;48.654;9.070;2022-07-23T02:33:29;21.00;99.90
15199;DHT22;7700;48.654;9.070;2022-07-23T02:35:55;21.10;99.90
15199;DHT22;7700;48.654;9.070;2022-07-23T02:38:20;21.10;99.90
15199;DHT22;7700;48.654;9.070;2022-07-23T02:40:46;21.10;99.90
15199;DHT22;7700;48.654;9.070;2022-07-23T02:43:12;21.10;99.90
15199;DHT22;7700;48.654;9.070;2022-07-23T02:45:37;21.20;99.90
15199;DHT22;7700;48.654;9.070;2022-07-23T02:48:03;21.20;99.90
15199;DHT22;7700;48.654;9.070;2022-07-23T02:50:29;21.10;99.90
15199;DHT22;7700;48.654;9.070;2022-07-23T02:52:54;21.20;99.90
15199;DHT22;7700;48.654;9.070;2022-07-23T02:55:20;21.30;99.90
15199;DHT22;7700;48.654;9.070;2022-07-23T02:57:45;21.30;99.90
15199;DHT22;7700;48.654;9.070;2022-07-23T03:00:11;21.30;99.90
15199;DHT22;7700;48.654;9.070;2022-07-23T03:02:37;21.20;99.90
15199;DHT22;7700;48.654;9.070;2022-07-23T03:05:03;21.20;99.90
15199;DHT22;7700;48.654;9.070;2022-07-23T03:07:47;21.20;99.90
15199;DHT22;7700;48.654;9.070;2022-07-23T03:10:13;21.10;99.90
15199;DHT22;7700;48.654;9.070;2022-07-23T03:12:38;21.10;99.90
15199;DHT22;7700;48.654;9.070;2022-07-23T03:15:04;21.10;99.90
15199;DHT22;7700;48.654;9.070;2022-07-23T03:17:30;21.10;99.90
15199;DHT22;7700;48.654;9.070;2022-07-23T03:19:55;21.20;99.90
15199;DHT22;7700;48.654;9.070;2022-07-23T03:22:21;21.10;99.90
15199;DHT22;7700;48.654;9.070;2022-07-23T03:24:46;21.10;99.90
15199;DHT22;7700;48.654;9.070;2022-07-23T03:27:26;21.00;99.90
15199;DHT22;7700;48.654;9.070;2022-07-23T03:29:53;20.80;99.90
15199;DHT22;7700;48.654;9.070;2022-07-23T03:32:20;20.70;99.90
15199;DHT22;7700;48.654;9.070;2022-07-23T03:34:46;20.60;99.90
15199;DHT22;7700;48.654;9.070;2022-07-23T03:37:11;20.50;99.90
15199;DHT22;7700;48.654;9.070;2022-07-23T03:39:37;20.50;99.90
15199;DHT22;7700;48.654;9.070;2022-07-23T03:42:03;20.50;99.90
15199;DHT22;7700;48.654;9.070;2022-07-23T03:44:28;20.50;99.90
15199;DHT22;7700;48.654;9.070;2022-07-23T03:46:54;20.40;99.90
15199;DHT22;7700;48.654;9.070;2022-07-23T03:49:19;20.40;99.90
15199;DHT22;7700;48.654;9.070;2022-07-23T03:51:45;20.40;99.90
15199;DHT22;7700;48.654;9.070;2022-07-23T03:54:11;20.40;99.90
15199;DHT22;7700;48.654;9.070;2022-07-23T03:56:36;20.40;99.90
15199;DHT22;7700;48.654;9.070;2022-07-23T03:59:02;20.40;99.90
15199;DHT22;7700;48.654;9.070;2022-07-23T04:01:27;20.40;99.90
15199;DHT22;7700;48.654;9.070;2022-07-23T04:03:53;20.40;99.90
15199;DHT22;7700;48.654;9.070;2022-07-23T04:06:18;20.40;99.90
15199;DHT22;7700;48.654;9.070;2022-07-23T04:08:44;20.30;99.90
15199;DHT22;7700;48.654;9.070;2022-07-23T04:11:10;20.10;99.90
15199;DHT22;7700;48.654;9.070;2022-07-23T04:13:35;19.80;99.90
15199;DHT22;7700;48.654;9.070;2022-07-23T04:16:01;19.50;99.90
15199;DHT22;7700;48.654;9.070;2022-07-23T04:18:26;19.40;99.90
15199;DHT22;7700;48.654;9.070;2022-07-23T04:20:52;19.40;99.90
15199;DHT22;7700;48.654;9.070;2022-07-23T04:23:18;19.50;99.90
15199;DHT22;7700;48.654;9.070;2022-07-23T04:25:43;19.60;99.90
15199;DHT22;7700;48.654;9.070;2022-07-23T04:28:09;19.70;99.90
15199;DHT22;7700;48.654;9.070;2022-07-23T04:30:35;19.80;99.90
15199;DHT22;7700;48.654;9.070;2022-07-23T04:33:00;19.90;99.90
15199;DHT22;7700;48.654;9.070;2022-07-23T04:35:26;20.00;99.90
15199;DHT22;7700;48.654;9.070;2022-07-23T04:37:52;20.10;99.90
15199;DHT22;7700;48.654;9.070;2022-07-23T04:40:18;20.30;99.90
15199;DHT22;7700;48.654;9.070;2022-07-23T04:42:43;20.30;99.90
15199;DHT22;7700;48.654;9.070;2022-07-23T04:45:09;20.40;99.90
15199;DHT22;7700;48.654;9.070;2022-07-23T04:47:35;20.50;99.90
15199;DHT22;7700;48.654;9.070;2022-07-23T04:50:00;20.60;99.90
15199;DHT22;7700;48.654;9.070;2022-07-23T04:52:26;20.50;99.90
15199;DHT22;7700;48.654;9.070;2022-07-23T04:54:51;20.50;99.90
15199;DHT22;7700;48.654;9.070;2022-07-23T04:57:17;20.50;99.90
15199;DHT22;7700;48.654;9.070;2022-07-23T04:59:42;20.40;99.90
15199;DHT22;7700;48.654;9.070;2022-07-23T05:02:08;20.40;99.90
15199;DHT22;7700;48.654;9.070;2022-07-23T05:04:33;20.50;99.90
15199;DHT22;7700;48.654;9.070;2022-07-23T05:06:59;20.60;99.90
15199;DHT22;7700;48.654;9.070;2022-07-23T05:09:25;20.60;99.90
15199;DHT22;7700;48.654;9.070;2022-07-23T05:11:51;20.70;99.90
15199;DHT22;7700;48.654;9.070;2022-07-23T05:14:16;20.70;99.90
15199;DHT22;7700;48.654;9.070;2022-07-23T05:16:42;20.60;99.90
15199;DHT22;7700;48.654;9.070;2022-07-23T05:19:07;20.50;99.90
15199;DHT22;7700;48.654;9.070;2022-07-23T05:21:33;20.50;99.90
15199;DHT22;7700;48.654;9.070;2022-07-23T05:23:59;20.50;99.90
15199;DHT22;7700;48.654;9.070;2022-07-23T05:26:24;20.70;99.90
15199;DHT22;7700;48.654;9.070;2022-07-23T05:28:51;20.90;99.90
15199;DHT22;7700;48.654;9.070;2022-07-23T05:31:16;21.00;99.90
15199;DHT22;7700;48.654;9.070;2022-07-23T05:33:42;21.20;99.90
15199;DHT22;7700;48.654;9.070;2022-07-23T05:36:08;21.40;99.90
15199;DHT22;7700;48.654;9.070;2022-07-23T05:38:34;21.40;99.90
15199;DHT22;7700;48.654;9.070;2022-07-23T05:41:00;21.50;99.90
15199;DHT22;7700;48.654;9.070;2022-07-23T05:43:25;21.50;99.90
15199;DHT22;7700;48.654;9.070;2022-07-23T05:45:51;21.60;99.90
15199;DHT22;7700;48.654;9.070;2022-07-23T05:48:17;21.70;99.90
15199;DHT22;7700;48.654;9.070;2022-07-23T05:50:42;21.70;99.90
15199;DHT22;7700;48.654;9.070;2022-07-23T05:53:08;21.70;99.90
15199;DHT22;7700;48.654;9.070;2022-07-23T05:55:34;21.60;99.90
15199;DHT22;7700;48.654;9.070;2022-07-23T05:57:59;21.50;99.90
15199;DHT22;7700;48.654;9.070;2022-07-23T06:00:27;21.50;99.90
15199;DHT22;7700;48.654;9.070;2022-07-23T06:02:52;21.50;99.90
15199;DHT22;7700;48.654;9.070;2022-07-23T06:05:18;21.60;99.90
15199;DHT22;7700;48.654;9.070;2022-07-23T06:07:44;21.70;99.90
15199;DHT22;7700;48.654;9.070;2022-07-23T06:10:10;21.70;99.90
15199;DHT22;7700;48.654;9.070;2022-07-23T06:12:36;21.70;99.90
15199;DHT22;7700;48.654;9.070;2022-07-23T06:15:02;21.70;99.90
15199;DHT22;7700;48.654;9.070;2022-07-23T06:17:28;21.80;99.90
15199;DHT22;7700;48.654;9.070;2022-07-23T06:19:54;22.00;99.90
15199;DHT22;7700;48.654;9.070;2022-07-23T06:22:20;22.30;99.90
15199;DHT22;7700;48.654;9.070;2022-07-23T06:24:45;22.50;99.90
15199;DHT22;7700;48.654;9.070;2022-07-23T06:27:11;22.70;99.90
15199;DHT22;7700;48.654;9.070;2022-07-23T06:29:36;22.80;99.90
15199;DHT22;7700;48.654;9.070;2022-07-23T06:32:02;22.90;99.90
15199;DHT22;7700;48.654;9.070;2022-07-23T06:34:28;23.10;99.90
15199;DHT22;7700;48.654;9.070;2022-07-23T06:36:53;23.20;99.90
15199;DHT22;7700;48.654;9.070;2022-07-23T06:39:19;23.10;99.90
15199;DHT22;7700;48.654;9.070;2022-07-23T06:41:44;23.30;99.90
15199;DHT22;7700;48.654;9.070;2022-07-23T06:44:10;23.70;99.90
15199;DHT22;7700;48.654;9.070;2022-07-23T06:46:35;24.00;99.90
15199;DHT22;7700;48.654;9.070;2022-07-23T06:49:01;24.30;99.90
15199;DHT22;7700;48.654;9.070;2022-07-23T06:51:27;24.40;99.90
15199;DHT22;7700;48.654;9.070;2022-07-23T06:53:52;24.60;99.90
15199;DHT22;7700;48.654;9.070;2022-07-23T06:56:18;24.60;99.90
15199;DHT22;7700;48.654;9.070;2022-07-23T06:58:43;24.60;99.90
15199;DHT22;7700;48.654;9.070;2022-07-23T07:01:09;24.70;99.90
15199;DHT22;7700;48.654;9.070;2022-07-23T07:03:34;24.80;99.90
15199;DHT22;7700;48.654;9.070;2022-07-23T07:06:00;24.70;99.90
15199;DHT22;7700;48.654;9.070;2022-07-23T07:08:25;24.70;99.90
15199;DHT22;7700;48.654;9.070;2022-07-23T07:10:51;24.60;99.90
15199;DHT22;7700;48.654;9.070;2022-07-23T07:13:16;24.30;99.90
15199;DHT22;7700;48.654;9.070;2022-07-23T07:15:42;24.20;99.90
15199;DHT22;7700;48.654;9.070;2022-07-23T07:18:07;24.00;99.90
15199;DHT22;7700;48.654;9.070;2022-07-23T07:20:33;24.00;99.90
15199;DHT22;7700;48.654;9.070;2022-07-23T07:22:59;24.00;99.90
15199;DHT22;7700;48.654;9.070;2022-07-23T07:25:24;24.00;99.90
15199;DHT22;7700;48.654;9.070;2022-07-23T07:27:50;24.20;99.90
15199;DHT22;7700;48.654;9.070;2022-07-23T07:30:15;24.60;99.90
15199;DHT22;7700;48.654;9.070;2022-07-23T07:32:41;25.00;99.90
15199;DHT22;7700;48.654;9.070;2022-07-23T07:35:08;25.50;99.90
15199;DHT22;7700;48.654;9.070;2022-07-23T07:37:34;26.00;99.90
15199;DHT22;7700;48.654;9.070;2022-07-23T07:39:59;26.40;99.90
15199;DHT22;7700;48.654;9.070;2022-07-23T07:42:26;26.80;99.90
15199;DHT22;7700;48.654;9.070;2022-07-23T07:44:52;27.10;99.90
15199;DHT22;7700;48.654;9.070;2022-07-23T07:47:17;27.30;99.90
15199;DHT22;7700;48.654;9.070;2022-07-23T07:49:43;27.50;99.90
15199;DHT22;7700;48.654;9.070;2022-07-23T07:52:09;27.70;99.90
15199;DHT22;7700;48.654;9.070;2022-07-23T07:54:35;27.90;99.90
15199;DHT22;7700;48.654;9.070;2022-07-23T07:57:00;28.00;99.90
15199;DHT22;7700;48.654;9.070;2022-07-23T07:59:26;28.30;99.90
15199;DHT22;7700;48.654;9.070;2022-07-23T08:01:52;28.50;99.90
15199;DHT22;7700;48.654;9.070;2022-07-23T08:04:17;28.60;99.90
15199;DHT22;7700;48.654;9.070;2022-07-23T08:06:43;28.80;99.90
15199;DHT22;7700;48.654;9.070;2022-07-23T08:09:08;29.00;99.90
15199;DHT22;7700;48.654;9.070;2022-07-23T08:11:34;28.70;99.90
15199;DHT22;7700;48.654;9.070;2022-07-23T08:14:00;28.50;99.90
15199;DHT22;7700;48.654;9.070;2022-07-23T08:16:25;28.30;99.90
15199;DHT22;7700;48.654;9.070;2022-07-23T08:18:51;27.90;99.90
15199;DHT22;7700;48.654;9.070;2022-07-23T08:21:16;27.50;99.90
15199;DHT22;7700;48.654;9.070;2022-07-23T08:23:42;27.60;99.90
15199;DHT22;7700;48.654;9.070;2022-07-23T08:26:08;27.90;99.90
15199;DHT22;7700;48.654;9.070;2022-07-23T08:28:33;28.10;99.90
15199;DHT22;7700;48.654;9.070;2022-07-23T08:30:59;28.40;99.90
15199;DHT22;7700;48.654;9.070;2022-07-23T08:33:26;28.20;99.90
15199;DHT22;7700;48.654;9.070;2022-07-23T08:35:52;28.10;99.90
15199;DHT22;7700;48.654;9.070;2022-07-23T08:38:20;28.20;99.90
15199;DHT22;7700;48.654;9.070;2022-07-23T08:40:48;28.40;99.90
15199;DHT22;7700;48.654;9.070;2022-07-23T08:43:19;28.40;99.90
15199;DHT22;7700;48.654;9.070;2022-07-23T08:45:46;28.60;99.90
15199;DHT22;7700;48.654;9.070;2022-07-23T08:48:14;28.90;99.90
15199;DHT22;7700;48.654;9.070;2022-07-23T08:50:51;28.90;99.60
15199;DHT22;7700;48.654;9.070;2022-07-23T08:53:18;29.20;99.80
15199;DHT22;7700;48.654;9.070;2022-07-23T08:55:45;29.40;99.90
15199;DHT22;7700;48.654;9.070;2022-07-23T08:58:12;29.60;99.30
15199;DHT22;7700;48.654;9.070;2022-07-23T09:00:38;29.70;99.30
15199;DHT22;7700;48.654;9.070;2022-07-23T09:03:03;29.80;97.70
15199;DHT22;7700;48.654;9.070;2022-07-23T09:05:29;29.80;95.20
15199;DHT22;7700;48.654;9.070;2022-07-23T09:08:17;29.50;96.40
15199;DHT22;7700;48.654;9.070;2022-07-23T09:10:46;29.20;96.00
15199;DHT22;7700;48.654;9.070;2022-07-23T09:15:56;28.40;97.60
15199;DHT22;7700;48.654;9.070;2022-07-23T09:18:30;28.50;97.30
15199;DHT22;7700;48.654;9.070;2022-07-23T09:21:15;28.70;98.20
15199;DHT22;7700;48.654;9.070;2022-07-23T09:23:54;28.80;98.80
15199;DHT22;7700;48.654;9.070;2022-07-23T09:26:37;29.10;97.30
15199;DHT22;7700;48.654;9.070;2022-07-23T09:34:15;29.80;95.30
15199;DHT22;7700;48.654;9.070;2022-07-23T09:36:41;30.40;96.20
15199;DHT22;7700;48.654;9.070;2022-07-23T09:39:07;30.90;95.30
15199;DHT22;7700;48.654;9.070;2022-07-23T09:41:38;31.40;94.20
15199;DHT22;7700;48.654;9.070;2022-07-23T09:44:12;31.90;93.20
15199;DHT22;7700;48.654;9.070;2022-07-23T09:46:38;32.20;92.80
15199;DHT22;7700;48.654;9.070;2022-07-23T09:49:18;31.90;91.80
15199;DHT22;7700;48.654;9.070;2022-07-23T09:51:58;32.00;92.30
15199;DHT22;7700;48.654;9.070;2022-07-23T09:57:11;32.70;91.70
15199;DHT22;7700;48.654;9.070;2022-07-23T09:59:42;32.70;91.40
15199;DHT22;7700;48.654;9.070;2022-07-23T10:03:31;32.50;90.20
15199;DHT22;7700;48.654;9.070;2022-07-23T10:05:57;32.50;91.00
15199;DHT22;7700;48.654;9.070;2022-07-23T10:08:23;32.40;91.50
15199;DHT22;7700;48.654;9.070;2022-07-23T10:10:50;32.30;90.50
15199;DHT22;7700;48.654;9.070;2022-07-23T10:13:16;31.90;90.30
15199;DHT22;7700;48.654;9.070;2022-07-23T10:16:01;31.10;92.50
15199;DHT22;7700;48.654;9.070;2022-07-23T10:18:26;30.80;92.40
15199;DHT22;7700;48.654;9.070;2022-07-23T10:20:52;30.80;92.30
15199;DHT22;7700;48.654;9.070;2022-07-23T10:24:04;30.30;92.70
15199;DHT22;7700;48.654;9.070;2022-07-23T10:26:27;30.40;93.30
15199;DHT22;7700;48.654;9.070;2022-07-23T10:34:41;31.50;92.50
15199;DHT22;7700;48.654;9.070;2022-07-23T10:37:21;32.30;92.40
15199;DHT22;7700;48.654;9.070;2022-07-23T10:40:18;32.40;90.60
15199;DHT22;7700;48.654;9.070;2022-07-23T10:42:45;32.10;91.20
15199;DHT22;7700;48.654;9.070;2022-07-23T10:51:24;31.50;90.60
15199;DHT22;7700;48.654;9.070;2022-07-23T10:53:59;31.60;92.40
15199;DHT22;7700;48.654;9.070;2022-07-23T10:56:48;31.70;89.40
15199;DHT22;7700;48.654;9.070;2022-07-23T10:59:14;32.10;91.00
15199;DHT22;7700;48.654;9.070;2022-07-23T11:01:40;32.90;90.00
15199;DHT22;7700;48.654;9.070;2022-07-23T11:04:05;33.30;86.80
15199;DHT22;7700;48.654;9.070;2022-07-23T11:15:03;33.70;80.60
15199;DHT22;7700;48.654;9.070;2022-07-23T11:17:30;34.00;80.00
15199;DHT22;7700;48.654;9.070;2022-07-23T11:22:39;34.50;78.90
15199;DHT22;7700;48.654;9.070;2022-07-23T11:25:06;34.80;76.60
15199;DHT22;7700;48.654;9.070;2022-07-23T11:27:38;34.70;75.00
15199;DHT22;7700;48.654;9.070;2022-07-23T11:30:04;34.70;76.20
15199;DHT22;7700;48.654;9.070;2022-07-23T11:32:32;34.70;74.00
15199;DHT22;7700;48.654;9.070;2022-07-23T11:35:00;34.50;73.30
15199;DHT22;7700;48.654;9.070;2022-07-23T11:37:38;34.30;73.70
15199;DHT22;7700;48.654;9.070;2022-07-23T11:40:09;34.70;74.70
15199;DHT22;7700;48.654;9.070;2022-07-23T11:42:37;35.10;73.00
15199;DHT22;7700;48.654;9.070;2022-07-23T11:45:07;35.10;72.60
15199;DHT22;7700;48.654;9.070;2022-07-23T11:47:33;35.10;71.50
15199;DHT22;7700;48.654;9.070;2022-07-23T11:50:01;35.00;70.80
15199;DHT22;7700;48.654;9.070;2022-07-23T11:52:28;34.90;72.50
15199;DHT22;7700;48.654;9.070;2022-07-23T11:55:04;34.80;70.30
15199;DHT22;7700;48.654;9.070;2022-07-23T11:57:33;34.80;71.70
15199;DHT22;7700;48.654;9.070;2022-07-23T12:00:18;34.90;70.90
15199;DHT22;7700;48.654;9.070;2022-07-23T12:02:49;34.70;69.80
15199;DHT22;7700;48.654;9.070;2022-07-23T12:05:16;34.40;73.10
15199;DHT22;7700;48.654;9.070;2022-07-23T12:07:44;34.90;71.80
15199;DHT22;7700;48.654;9.070;2022-07-23T12:10:17;35.20;71.60
15199;DHT22;7700;48.654;9.070;2022-07-23T12:12:53;35.10;67.60
15199;DHT22;7700;48.654;9.070;2022-07-23T12:15:23;34.70;68.50
15199;DHT22;7700;48.654;9.070;2022-07-23T12:17:50;34.70;73.20
15199;DHT22;7700;48.654;9.070;2022-07-23T12:20:20;35.00;71.10
15199;DHT22;7700;48.654;9.070;2022-07-23T12:22:48;35.40;69.70
15199;DHT22;7700;48.654;9.070;2022-07-23T12:25:29;35.40;68.10
15199;DHT22;7700;48.654;9.070;2022-07-23T12:28:02;35.60;68.10
15199;DHT22;7700;48.654;9.070;2022-07-23T12:30:43;35.70;67.10
15199;DHT22;7700;48.654;9.070;2022-07-23T12:33:21;35.70;67.60
15199;DHT22;7700;48.654;9.070;2022-07-23T12:35:47;35.50;68.60
15199;DHT22;7700;48.654;9.070;2022-07-23T12:38:21;35.80;66.80
15199;DHT22;7700;48.654;9.070;2022-07-23T12:40:52;35.80;67.10
15199;DHT22;7700;48.654;9.070;2022-07-23T12:43:29;35.70;66.30
15199;DHT22;7700;48.654;9.070;2022-07-23T12:48:35;35.50;67.30
15199;DHT22;7700;48.654;9.070;2022-07-23T12:51:28;35.30;66.70
15199;DHT22;7700;48.654;9.070;2022-07-23T12:54:06;34.70;67.10
15199;DHT22;7700;48.654;9.070;2022-07-23T12:56:35;34.10;68.70
15199;DHT22;7700;48.654;9.070;2022-07-23T13:01:31;34.50;69.20
15199;DHT22;7700;48.654;9.070;2022-07-23T13:04:08;34.50;69.50
15199;DHT22;7700;48.654;9.070;2022-07-23T13:06:40;33.70;70.20
15199;DHT22;7700;48.654;9.070;2022-07-23T13:09:07;33.00;72.40
15199;DHT22;7700;48.654;9.070;2022-07-23T13:11:33;32.20;73.90
15199;DHT22;7700;48.654;9.070;2022-07-23T13:13:59;31.90;76.40
15199;DHT22;7700;48.654;9.070;2022-07-23T13:16:29;32.20;76.80
15199;DHT22;7700;48.654;9.070;2022-07-23T13:18:55;32.70;74.30
15199;DHT22;7700;48.654;9.070;2022-07-23T13:21:22;33.10;74.60
15199;DHT22;7700;48.654;9.070;2022-07-23T13:23:48;33.60;72.80
15199;DHT22;7700;48.654;9.070;2022-07-23T13:26:14;34.00;72.40
15199;DHT22;7700;48.654;9.070;2022-07-23T13:28:39;34.30;71.30
15199;DHT22;7700;48.654;9.070;2022-07-23T13:31:05;34.10;71.80
15199;DHT22;7700;48.654;9.070;2022-07-23T13:33:31;34.10;71.80
15199;DHT22;7700;48.654;9.070;2022-07-23T13:35:56;34.20;70.80
15199;DHT22;7700;48.654;9.070;2022-07-23T13:38:22;34.20;71.10
15199;DHT22;7700;48.654;9.070;2022-07-23T13:40:50;33.80;70.00
15199;DHT22;7700;48.654;9.070;2022-07-23T13:43:17;33.80;70.80
15199;DHT22;7700;48.654;9.070;2022-07-23T13:45:44;33.30;72.00
15199;DHT22;7700;48.654;9.070;2022-07-23T13:48:11;32.60;72.50
15199;DHT22;7700;48.654;9.070;2022-07-23T13:50:37;32.10;73.50
15199;DHT22;7700;48.654;9.070;2022-07-23T13:53:04;31.60;75.60
15199;DHT22;7700;48.654;9.070;2022-07-23T13:55:31;31.40;76.40
15199;DHT22;7700;48.654;9.070;2022-07-23T13:57:57;31.20;76.90
15199;DHT22;7700;48.654;9.070;2022-07-23T14:00:23;31.00;76.70
15199;DHT22;7700;48.654;9.070;2022-07-23T14:02:48;30.60;77.20
15199;DHT22;7700;48.654;9.070;2022-07-23T14:05:14;30.20;77.70
15199;DHT22;7700;48.654;9.070;2022-07-23T14:07:39;30.10;79.20
15199;DHT22;7700;48.654;9.070;2022-07-23T14:10:06;29.90;79.30
15199;DHT22;7700;48.654;9.070;2022-07-23T14:12:32;29.80;80.00
15199;DHT22;7700;48.654;9.070;2022-07-23T14:14:58;29.80;80.20
15199;DHT22;7700;48.654;9.070;2022-07-23T14:17:24;29.90;79.40
15199;DHT22;7700;48.654;9.070;2022-07-23T14:19:50;30.00;79.10
15199;DHT22;7700;48.654;9.070;2022-07-23T14:22:16;30.10;80.50
15199;DHT22;7700;48.654;9.070;2022-07-23T14:24:42;30.20;80.40
15199;DHT22;7700;48.654;9.070;2022-07-23T14:27:08;30.30;79.20
15199;DHT22;7700;48.654;9.070;2022-07-23T14:29:34;30.70;78.60
15199;DHT22;7700;48.654;9.070;2022-07-23T14:31:59;31.10;78.90
15199;DHT22;7700;48.654;9.070;2022-07-23T14:34:26;31.40;76.90
15199;DHT22;7700;48.654;9.070;2022-07-23T14:36:52;31.60;77.40
15199;DHT22;7700;48.654;9.070;2022-07-23T14:39:18;31.70;77.90
15199;DHT22;7700;48.654;9.070;2022-07-23T14:41:43;31.70;74.20
15199;DHT22;7700;48.654;9.070;2022-07-23T14:44:09;31.70;75.20
15199;DHT22;7700;48.654;9.070;2022-07-23T14:46:35;32.00;78.10
15199;DHT22;7700;48.654;9.070;2022-07-23T14:49:02;32.30;74.10
15199;DHT22;7700;48.654;9.070;2022-07-23T14:51:27;32.10;74.10
15199;DHT22;7700;48.654;9.070;2022-07-23T14:53:53;32.10;76.10
15199;DHT22;7700;48.654;9.070;2022-07-23T14:56:19;32.00;75.00
15199;DHT22;7700;48.654;9.070;2022-07-23T14:58:44;32.00;75.10
15199;DHT22;7700;48.654;9.070;2022-07-23T15:01:10;31.80;73.60
15199;DHT22;7700;48.654;9.070;2022-07-23T15:03:35;31.50;74.60
15199;DHT22;7700;48.654;9.070;2022-07-23T15:06:01;31.20;74.40
15199;DHT22;7700;48.654;9.070;2022-07-23T15:08:27;31.10;77.00
15199;DHT22;7700;48.654;9.070;2022-07-23T15:10:52;30.80;77.90
15199;DHT22;7700;48.654;9.070;2022-07-23T15:13:18;30.70;77.90
15199;DHT22;7700;48.654;9.070;2022-07-23T15:15:44;30.50;78.40
15199;DHT22;7700;48.654;9.070;2022-07-23T15:18:11;30.40;78.60
15199;DHT22;7700;48.654;9.070;2022-07-23T15:20:36;30.20;78.10
15199;DHT22;7700;48.654;9.070;2022-07-23T15:23:04;30.00;80.20
15199;DHT22;7700;48.654;9.070;2022-07-23T15:25:29;29.70;79.60
15199;DHT22;7700;48.654;9.070;2022-07-23T15:27:57;29.60;80.50
15199;DHT22;7700;48.654;9.070;2022-07-23T15:30:24;29.50;81.40
15199;DHT22;7700;48.654;9.070;2022-07-23T15:32:50;29.50;78.80
15199;DHT22;7700;48.654;9.070;2022-07-23T15:35:15;29.40;80.40
15199;DHT22;7700;48.654;9.070;2022-07-23T15:37:41;29.10;82.70
15199;DHT22;7700;48.654;9.070;2022-07-23T15:40:08;29.10;83.70
15199;DHT22;7700;48.654;9.070;2022-07-23T15:42:33;29.00;80.90
15199;DHT22;7700;48.654;9.070;2022-07-23T15:44:59;29.00;83.50
15199;DHT22;7700;48.654;9.070;2022-07-23T15:47:24;29.10;82.60
15199;DHT22;7700;48.654;9.070;2022-07-23T15:49:50;29.10;82.90
15199;DHT22;7700;48.654;9.070;2022-07-23T15:52:16;29.00;79.90
15199;DHT22;7700;48.654;9.070;2022-07-23T15:54:41;28.80;81.80
15199;DHT22;7700;48.654;9.070;2022-07-23T15:57:07;29.00;83.50
15199;DHT22;7700;48.654;9.070;2022-07-23T15:59:33;29.00;83.10
15199;DHT22;7700;48.654;9.070;2022-07-23T16:01:59;28.90;84.00
15199;DHT22;7700;48.654;9.070;2022-07-23T16:04:24;28.90;82.40
15199;DHT22;7700;48.654;9.070;2022-07-23T16:06:50;28.80;84.60
15199;DHT22;7700;48.654;9.070;2022-07-23T16:09:16;28.60;84.60
15199;DHT22;7700;48.654;9.070;2022-07-23T16:11:41;28.70;85.20
15199;DHT22;7700;48.654;9.070;2022-07-23T16:14:07;28.70;84.80
15199;DHT22;7700;48.654;9.070;2022-07-23T16:16:33;28.70;83.40
15199;DHT22;7700;48.654;9.070;2022-07-23T16:18:59;28.80;83.10
15199;DHT22;7700;48.654;9.070;2022-07-23T16:21:25;28.80;83.00
15199;DHT22;7700;48.654;9.070;2022-07-23T16:23:51;28.90;82.50